Terminal Aerodrome Forecast
Issued by NWS

Home | Current Version | Previous Version | Graphics & Text | Print | Product List | Glossary Off
Versions: 1 2 3 4 5 6 7 8 9 10 11 12 13 14 15 16 17 18 19 20

000
FTUS43 KDDC 230520
TAFHYS
TAF
KHYS 230520Z 2306/2406 18018G27KT P6SM -TSRA FEW060 SCT080 BKN110CB
     FM230700 01013KT P6SM OVC100
     FM231600 01014KT P6SM SCT200
     FM240100 35008KT P6SM FEW250=

USA.gov is the U.S. government's official web portal to all federal, state and local government web resources and services.